createdAt,value
2022-11-25T00:01:26.717Z,95589.88
2022-11-25T00:03:54.444Z,95585.53
2022-11-25T00:06:22.375Z,95589.50
2022-11-25T00:08:51.068Z,95593.84
2022-11-25T00:11:17.735Z,95581.63
2022-11-25T00:13:44.506Z,95555.81
2022-11-25T00:16:12.532Z,95558.75
2022-11-25T00:18:39.084Z,95564.13
2022-11-25T00:21:10.951Z,95539.53
2022-11-25T00:23:37.413Z,95501.28
2022-11-25T00:26:10.909Z,95477.34
2022-11-25T00:28:37.633Z,95475.69
2022-11-25T00:31:07.805Z,95491.41
2022-11-25T00:33:34.164Z,95480.16
2022-11-25T00:36:02.402Z,95474.03
2022-11-25T00:38:28.892Z,95470.63
2022-11-25T00:41:13.528Z,95464.78
2022-11-25T00:43:58.577Z,95465.59
2022-11-25T00:46:24.965Z,95427.09
2022-11-25T00:48:51.384Z,95419.13
2022-11-25T00:51:18.267Z,95403.63
2022-11-25T00:53:44.808Z,95385.56
2022-11-25T00:56:14.053Z,95389.09
2022-11-25T00:58:43.729Z,95404.81
2022-11-25T01:01:10.482Z,95417.25
2022-11-25T01:03:37.176Z,95426.16
2022-11-25T01:06:08.257Z,95435.06
2022-11-25T01:08:34.877Z,95443.75
2022-11-25T01:11:06.262Z,95448.94
2022-11-25T01:13:32.846Z,95454.31
2022-11-25T01:16:03.312Z,95459.47
2022-11-25T01:18:29.758Z,95451.72
2022-11-25T01:20:56.121Z,95451.03
2022-11-25T01:23:22.501Z,95455.25
2022-11-25T01:25:48.894Z,95455.38
2022-11-25T01:28:15.276Z,95451.88
2022-11-25T01:30:41.673Z,95451.88
2022-11-25T01:33:08.022Z,95433.91
2022-11-25T01:35:37.526Z,95440.03
2022-11-25T01:38:03.999Z,95437.56
2022-11-25T01:40:30.351Z,95426.41
2022-11-25T01:42:56.718Z,95432.72
2022-11-25T01:45:26.596Z,95432.84
2022-11-25T01:47:57.190Z,95413.97
2022-11-25T01:50:23.804Z,95405.28
2022-11-25T01:52:50.934Z,95389.13
2022-11-25T01:55:26.582Z,95379.50
2022-11-25T01:57:57.410Z,95369.16
2022-11-25T02:00:23.773Z,95338.53
2022-11-25T02:02:50.777Z,95314.72
2022-11-25T02:05:18.632Z,95253.94
2022-11-25T02:07:46.420Z,95212.63
2022-11-25T02:10:15.687Z,95165.66
2022-11-25T02:12:43.083Z,95118.69
2022-11-25T02:15:10.068Z,95088.53
2022-11-25T02:17:36.423Z,95042.38
2022-11-25T02:20:06.435Z,95010.56
2022-11-25T02:22:51.063Z,94995.47
2022-11-25T02:25:17.594Z,94999.94
2022-11-25T02:27:44.567Z,95003.47
2022-11-25T02:30:11.239Z,95008.88
2022-11-25T02:32:43.443Z,95009.69
2022-11-25T02:35:29.348Z,94988.81
2022-11-25T02:37:58.972Z,94979.56
2022-11-25T02:40:25.882Z,94989.88
2022-11-25T02:42:52.238Z,95002.38
2022-11-25T02:45:20.066Z,95014.44
2022-11-25T02:47:46.398Z,95034.66
2022-11-25T02:50:13.817Z,95058.13
2022-11-25T02:52:40.251Z,95072.00
2022-11-25T02:55:07.026Z,95093.59
2022-11-25T02:57:33.428Z,95110.94
2022-11-25T02:59:59.763Z,95118.81
2022-11-25T03:02:26.151Z,95152.63
2022-11-25T03:04:52.507Z,95176.19
2022-11-25T03:07:18.984Z,95210.00
2022-11-25T03:09:45.374Z,95234.41
2022-11-25T03:12:20.813Z,95242.03
2022-11-25T03:14:47.680Z,95252.59
2022-11-25T03:17:14.341Z,95272.53
2022-11-25T03:19:40.705Z,95286.38
2022-11-25T03:22:07.178Z,95290.84
2022-11-25T03:24:33.868Z,95296.81
2022-11-25T03:27:01.635Z,95299.53
2022-11-25T03:29:27.967Z,95299.25
2022-11-25T03:31:54.415Z,95299.25
2022-11-25T03:34:20.841Z,95307.94
2022-11-25T03:36:47.272Z,95307.25
2022-11-25T03:39:13.695Z,95304.91
2022-11-25T03:41:40.039Z,95301.38
2022-11-25T03:44:06.406Z,95280.75
2022-11-25T03:46:32.777Z,95273.72
2022-11-25T03:48:59.198Z,95257.19
2022-11-25T03:51:25.683Z,95245.81
2022-11-25T03:53:52.053Z,95235.47
2022-11-25T03:56:18.382Z,95233.81
2022-11-25T03:58:44.765Z,95242.75
2022-11-25T04:01:11.144Z,95247.31
2022-11-25T04:03:37.563Z,95225.63
2022-11-25T04:06:03.925Z,95234.31
2022-11-25T04:08:30.355Z,95233.38
2022-11-25T04:10:56.731Z,95224.00
2022-11-25T04:13:23.078Z,95211.53
2022-11-25T04:15:50.516Z,95218.84
2022-11-25T04:18:17.457Z,95218.59
2022-11-25T04:20:44.002Z,95215.19
2022-11-25T04:23:10.640Z,95189.03
2022-11-25T04:25:37.198Z,95181.97
2022-11-25T04:28:03.884Z,95164.63
2022-11-25T04:30:30.381Z,95155.00
2022-11-25T04:32:56.812Z,95144.00
2022-11-25T04:35:23.222Z,95143.03
2022-11-25T04:37:49.615Z,95138.56
2022-11-25T04:40:16.070Z,95138.56
2022-11-25T04:42:42.508Z,95133.16
2022-11-25T04:45:25.657Z,95124.47
2022-11-25T04:47:52.076Z,95117.69
2022-11-25T04:50:20.241Z,95122.00
2022-11-25T04:52:46.600Z,95129.88
2022-11-25T04:55:12.950Z,95129.19
2022-11-25T04:57:39.311Z,95136.94
2022-11-25T05:00:06.289Z,95138.56
2022-11-25T05:02:32.724Z,95128.25
2022-11-25T05:04:59.119Z,95131.78
2022-11-25T05:07:27.132Z,95115.09
2022-11-25T05:09:53.540Z,95105.72
2022-11-25T05:12:22.508Z,95094.34
2022-11-25T05:14:49.183Z,95090.81
2022-11-25T05:17:17.532Z,95070.72
2022-11-25T05:19:44.205Z,95060.16
2022-11-25T05:22:12.367Z,95058.25
2022-11-25T05:24:38.735Z,95060.16
2022-11-25T05:27:05.514Z,95070.72
2022-11-25T05:29:31.887Z,95074.81
2022-11-25T05:31:58.275Z,95075.19
2022-11-25T05:34:24.665Z,95072.63
2022-11-25T05:36:51.922Z,95062.03
2022-11-25T05:39:18.588Z,95033.53
2022-11-25T05:41:44.970Z,95020.75
2022-11-25T05:44:11.339Z,95008.78
2022-11-25T05:46:37.754Z,95013.94
2022-11-25T05:49:04.115Z,95016.09
2022-11-25T05:51:30.751Z,95024.09
2022-11-25T05:53:57.277Z,95016.34
2022-11-25T05:56:23.735Z,95004.94
2022-11-25T05:58:50.175Z,95000.63
2022-11-25T06:01:17.219Z,95007.91
2022-11-25T06:03:43.680Z,95015.22
2022-11-25T06:06:10.200Z,95015.47
2022-11-25T06:08:36.968Z,94988.72
2022-11-25T06:11:09.278Z,94967.41
2022-11-25T06:13:35.678Z,94949.22
2022-11-25T06:16:17.585Z,94929.13
2022-11-25T06:18:43.989Z,94936.19
2022-11-25T06:21:10.701Z,94939.69
2022-11-25T06:23:37.149Z,94948.41
2022-11-25T06:26:12.667Z,94950.31
2022-11-25T06:28:39.045Z,94967.94
2022-11-25T06:31:10.095Z,94985.03
2022-11-25T06:33:36.564Z,94998.19
2022-11-25T06:36:07.854Z,95011.78
2022-11-25T06:38:34.549Z,95012.03
2022-11-25T06:41:02.287Z,95009.19
2022-11-25T06:43:29.084Z,95008.94
2022-11-25T06:45:55.592Z,95019.53
2022-11-25T06:48:21.937Z,95015.75
2022-11-25T06:50:56.633Z,95015.75
2022-11-25T06:53:24.353Z,95011.94
2022-11-25T06:56:01.923Z,94989.97
2022-11-25T06:58:35.796Z,94973.44
2022-11-25T07:01:03.583Z,94934.91
2022-11-25T07:03:30.114Z,94893.09
2022-11-25T07:05:58.167Z,94864.31
2022-11-25T07:08:29.487Z,94846.78
2022-11-25T07:11:06.142Z,94814.34
2022-11-25T07:13:32.675Z,94789.88
2022-11-25T07:16:06.012Z,94767.06
2022-11-25T07:18:33.242Z,94745.88
2022-11-25T07:21:10.366Z,94729.00
2022-11-25T07:23:37.292Z,94711.06
2022-11-25T07:26:05.156Z,94690.94
2022-11-25T07:28:31.586Z,94667.31
2022-11-25T07:31:23.661Z,94659.13
2022-11-25T07:33:52.196Z,94637.09
2022-11-25T07:36:18.617Z,94616.81
2022-11-25T07:38:46.724Z,94592.34
2022-11-25T07:41:15.019Z,94555.97
2022-11-25T07:43:46.289Z,94532.81
2022-11-25T07:46:21.981Z,94513.22
2022-11-25T07:48:50.011Z,94491.13
2022-11-25T07:51:35.381Z,94471.78
2022-11-25T07:54:02.578Z,94470.91
2022-11-25T07:56:28.951Z,94459.94
2022-11-25T07:58:55.963Z,94451.75
2022-11-25T08:01:22.412Z,94447.94
2022-11-25T08:03:50.021Z,94425.84
2022-11-25T08:06:19.397Z,94424.41
2022-11-25T08:08:46.030Z,94420.56
2022-11-25T08:11:17.503Z,94423.00
2022-11-25T08:13:44.187Z,94427.88
2022-11-25T08:16:11.738Z,94456.34
2022-11-25T08:18:38.279Z,94455.72
2022-11-25T08:21:06.088Z,94441.38
2022-11-25T08:23:33.256Z,94449.78
2022-11-25T08:26:12.712Z,94440.75
2022-11-25T08:28:39.389Z,94439.19
2022-11-25T08:31:08.192Z,94425.66
2022-11-25T08:33:34.671Z,94423.41
2022-11-25T08:36:01.102Z,94412.44
2022-11-25T08:38:27.923Z,94410.19
2022-11-25T08:40:54.417Z,94387.25
2022-11-25T08:43:25.071Z,94372.09
2022-11-25T08:45:55.502Z,94337.78
2022-11-25T08:48:21.906Z,94331.00
2022-11-25T08:50:50.640Z,94309.69
2022-11-25T08:53:17.046Z,94276.97
2022-11-25T08:55:43.454Z,94265.81
2022-11-25T08:58:10.033Z,94241.06
2022-11-25T09:00:43.228Z,94177.28
2022-11-25T09:03:09.983Z,94142.13
2022-11-25T09:05:40.394Z,94106.81
2022-11-25T09:08:07.118Z,94049.94
2022-11-25T09:10:33.839Z,93994.34
2022-11-25T09:13:00.266Z,93897.25
2022-11-25T09:15:26.804Z,93654.13
2022-11-25T09:18:00.640Z,93579.19
2022-11-25T09:20:27.343Z,93538.97
2022-11-25T09:22:53.832Z,93514.28
2022-11-25T09:25:21.356Z,93482.78
2022-11-25T09:27:47.982Z,93449.31
2022-11-25T09:30:14.832Z,93427.41
2022-11-25T09:32:41.242Z,93393.13
2022-11-25T09:35:07.970Z,93368.44
2022-11-25T09:37:34.590Z,93347.28
2022-11-25T09:40:00.927Z,93318.56
2022-11-25T09:43:07.333Z,93303.44
2022-11-25T09:46:06.339Z,93238.41
2022-11-25T09:48:56.564Z,93192.94
2022-11-25T09:51:26.765Z,93169.81
2022-11-25T09:54:06.988Z,93149.66
2022-11-25T09:56:53.536Z,93099.56
2022-11-25T09:59:22.227Z,93075.66
2022-11-25T10:01:58.862Z,93039.09
2022-11-25T10:04:38.061Z,92995.78
2022-11-25T10:07:05.052Z,92948.66
2022-11-25T10:09:33.109Z,92891.53
2022-11-25T10:12:29.430Z,92832.81
2022-11-25T10:14:59.914Z,92804.41
2022-11-25T10:17:35.493Z,92750.66
2022-11-25T10:20:18.643Z,92691.66
2022-11-25T10:22:52.971Z,92655.47
2022-11-25T10:25:24.837Z,92608.91
2022-11-25T10:28:04.475Z,92554.84
2022-11-25T10:31:03.477Z,92495.59
2022-11-25T10:33:39.375Z,92436.34
2022-11-25T10:36:28.542Z,92328.69
2022-11-25T10:39:03.989Z,92290.25
2022-11-25T10:41:32.628Z,92228.59
2022-11-25T10:43:59.034Z,92205.75
2022-11-25T10:46:57.096Z,92175.69
2022-11-25T10:49:47.157Z,92118.16
2022-11-25T10:52:13.944Z,92091.22
2022-11-25T10:54:40.875Z,92069.41
2022-11-25T10:57:20.338Z,92045.00
2022-11-25T10:59:59.576Z,92029.97
2022-11-25T11:02:29.827Z,92001.94
2022-11-25T11:05:08.873Z,91979.63
2022-11-25T11:07:38.500Z,91951.59
2022-11-25T11:10:24.231Z,91947.41
2022-11-25T11:13:00.916Z,91935.97
2022-11-25T11:15:54.563Z,91900.13
2022-11-25T11:18:23.095Z,91890.75
2022-11-25T11:20:51.417Z,91873.56
2022-11-25T11:23:17.851Z,91850.72
2022-11-25T11:25:57.926Z,91828.34
2022-11-25T11:28:32.828Z,91806.28
2022-11-25T11:31:18.416Z,91784.19
2022-11-25T11:33:48.234Z,91756.16
2022-11-25T11:36:39.432Z,91729.34
2022-11-25T11:39:38.181Z,91718.97
2022-11-25T11:42:16.845Z,91657.06
2022-11-25T11:45:02.587Z,91644.06
2022-11-25T11:47:51.668Z,91617.06
2022-11-25T11:50:29.532Z,91583.53
2022-11-25T11:53:14.710Z,91573.38
2022-11-25T11:56:33.469Z,91597.06
2022-11-25T11:59:06.673Z,91614.56
2022-11-25T12:01:55.602Z,91612.50
2022-11-25T12:04:29.359Z,91615.91
2022-11-25T12:07:09.396Z,91612.03
2022-11-25T12:09:39.021Z,91604.50
2022-11-25T12:12:06.381Z,91593.38
2022-11-25T12:14:42.713Z,91600.44
2022-11-25T12:17:18.451Z,91602.00
2022-11-25T12:19:47.805Z,91630.09
2022-11-25T12:22:35.721Z,91660.84
2022-11-25T12:25:22.982Z,91699.63
2022-11-25T12:28:17.556Z,91770.66
2022-11-25T12:31:04.594Z,91842.03
2022-11-25T12:33:51.127Z,91961.72
2022-11-25T12:36:35.477Z,92041.59
2022-11-25T12:39:45.654Z,92127.16
2022-11-25T12:42:16.535Z,92224.47
2022-11-25T12:44:49.001Z,92281.72
2022-11-25T12:47:15.351Z,92324.41
2022-11-25T12:49:49.162Z,92355.84
2022-11-25T12:52:46.554Z,92383.09
2022-11-25T12:55:28.831Z,92405.81
2022-11-25T12:58:13.330Z,92417.25
2022-11-25T13:00:48.766Z,92417.25
2022-11-25T13:03:36.348Z,92398.03
2022-11-25T13:06:31.937Z,92381.28
2022-11-25T13:09:30.509Z,92356.28
2022-11-25T13:12:18.269Z,92337.28
2022-11-25T13:15:06.943Z,92310.47
2022-11-25T13:17:36.071Z,92277.69
2022-11-25T13:20:27.401Z,92261.03
2022-11-25T13:23:07.957Z,92240.22
2022-11-25T13:25:35.008Z,92219.63
2022-11-25T13:28:03.545Z,92206.41
2022-11-25T13:30:33.084Z,92167.94
2022-11-25T13:33:11.844Z,92141.47
2022-11-25T13:35:44.410Z,92113.66
2022-11-25T13:38:29.074Z,92081.94
2022-11-25T13:40:59.925Z,92042.16
2022-11-25T13:43:26.427Z,92028.09
2022-11-25T13:45:52.987Z,91996.88
2022-11-25T13:48:26.827Z,91966.78
2022-11-25T13:51:14.244Z,91924.75
2022-11-25T13:53:40.607Z,91899.28
2022-11-25T13:56:30.606Z,91893.03
2022-11-25T13:59:12.300Z,91872.78
2022-11-25T14:01:45.298Z,91865.97
2022-11-25T14:04:12.858Z,91863.63
2022-11-25T14:07:05.246Z,91863.38
2022-11-25T14:09:41.716Z,91846.75
2022-11-25T14:12:29.353Z,91831.16
2022-11-25T14:15:03.616Z,91824.34
2022-11-25T14:18:15.204Z,91826.41
2022-11-25T14:20:47.689Z,91810.25
2022-11-25T14:23:26.211Z,91798.31
2022-11-25T14:25:56.640Z,91775.22
2022-11-25T14:28:26.406Z,91770.78
2022-11-25T14:30:54.687Z,91765.34
2022-11-25T14:33:24.702Z,91758.88
2022-11-25T14:35:55.986Z,91733.94
2022-11-25T14:38:32.827Z,91737.56
2022-11-25T14:41:03.797Z,91737.56
2022-11-25T14:43:30.173Z,91737.56
2022-11-25T14:46:17.407Z,91743.56
2022-11-25T14:48:44.035Z,91743.81
2022-11-25T14:51:12.220Z,91739.38
2022-11-25T14:53:48.214Z,91738.38
2022-11-25T14:56:16.907Z,91734.41
2022-11-25T14:58:47.612Z,91737.00
2022-11-25T15:01:22.425Z,91737.81
2022-11-25T15:03:49.549Z,91738.03
2022-11-25T15:06:16.205Z,91740.66
2022-11-25T15:08:44.144Z,91736.47
2022-11-25T15:11:14.022Z,91737.50
2022-11-25T15:13:47.671Z,91746.88
2022-11-25T15:16:18.639Z,91752.03
2022-11-25T15:18:56.164Z,91767.66
2022-11-25T15:21:53.742Z,91770.25
2022-11-25T15:24:24.940Z,91774.91
2022-11-25T15:26:52.764Z,91783.19
2022-11-25T15:29:19.371Z,91797.25
2022-11-25T15:31:46.073Z,91821.06
2022-11-25T15:34:13.439Z,91815.88
2022-11-25T15:36:39.953Z,91821.06
2022-11-25T15:39:21.510Z,91817.91
2022-11-25T15:42:15.375Z,91808.53
2022-11-25T15:44:55.714Z,91806.38
2022-11-25T15:47:29.254Z,91811.59
2022-11-25T15:50:01.363Z,91805.38
2022-11-25T15:52:29.938Z,91785.13
2022-11-25T15:55:00.088Z,91778.63
2022-11-25T15:57:31.850Z,91782.28
2022-11-25T15:59:58.221Z,91765.88
2022-11-25T16:02:30.746Z,91767.19
2022-11-25T16:05:12.363Z,91761.47
2022-11-25T16:07:51.342Z,91752.84
2022-11-25T16:10:30.144Z,91753.88
2022-11-25T16:13:25.859Z,91758.31
2022-11-25T16:16:02.116Z,91766.38
2022-11-25T16:19:18.253Z,91747.66
2022-11-25T16:21:51.640Z,91743.25
2022-11-25T16:24:35.687Z,91756.03
2022-11-25T16:27:16.405Z,91754.50
2022-11-25T16:30:18.126Z,91748.50
2022-11-25T16:32:44.711Z,91742.03
2022-11-25T16:35:15.779Z,91755.28
2022-11-25T16:37:47.169Z,91762.31
2022-11-25T16:40:15.651Z,91772.16
2022-11-25T16:42:42.086Z,91787.78
2022-11-25T16:45:19.766Z,91793.47
2022-11-25T16:47:46.118Z,91810.66
2022-11-25T16:50:16.694Z,91827.31
2022-11-25T16:52:43.201Z,91841.88
2022-11-25T16:55:09.571Z,91854.66
2022-11-25T16:57:36.123Z,91855.94
2022-11-25T17:00:08.390Z,91856.47
2022-11-25T17:02:35.295Z,91871.03
2022-11-25T17:05:19.201Z,91880.91
2022-11-25T17:07:45.709Z,91898.56
2022-11-25T17:10:12.239Z,91899.59
2022-11-25T17:12:38.572Z,91916.00
2022-11-25T17:15:06.400Z,91923.72
2022-11-25T17:17:33.090Z,91936.97
2022-11-25T17:19:59.482Z,91945.53
2022-11-25T17:22:26.730Z,91942.16
2022-11-25T17:24:53.835Z,91947.38
2022-11-25T17:27:23.828Z,91958.81
2022-11-25T17:29:50.229Z,91969.97
2022-11-25T17:32:16.729Z,91978.59
2022-11-25T17:34:43.204Z,91983.78
2022-11-25T17:37:14.946Z,91994.19
2022-11-25T17:39:41.510Z,92009.25
2022-11-25T17:42:07.853Z,92013.44
2022-11-25T17:44:34.257Z,92023.84
2022-11-25T17:47:00.596Z,92032.66
2022-11-25T17:49:26.971Z,92043.06
2022-11-25T17:51:53.441Z,92048.25
2022-11-25T17:54:19.793Z,92071.13
2022-11-25T17:56:51.772Z,92088.31
2022-11-25T17:59:31.991Z,92097.13
2022-11-25T18:02:01.313Z,92122.59
2022-11-25T18:04:38.972Z,92149.63
2022-11-25T18:07:05.537Z,92180.84
2022-11-25T18:09:31.903Z,92197.69
2022-11-25T18:11:59.507Z,92216.13
2022-11-25T18:14:33.332Z,92244.19
2022-11-25T18:17:04.944Z,92259.81
2022-11-25T18:19:31.902Z,92275.41
2022-11-25T18:22:09.038Z,92284.78
2022-11-25T18:24:37.055Z,92314.97
2022-11-25T18:27:03.753Z,92331.38
2022-11-25T18:29:30.120Z,92365.44
2022-11-25T18:31:56.670Z,92376.31
2022-11-25T18:34:23.598Z,92422.97
2022-11-25T18:36:50.290Z,92435.19
2022-11-25T18:39:16.722Z,92470.13
2022-11-25T18:41:43.130Z,92486.97
2022-11-25T18:44:43.543Z,92494.16
2022-11-25T18:47:13.310Z,92514.63
2022-11-25T18:49:39.854Z,92530.22
2022-11-25T18:52:06.312Z,92520.97
2022-11-25T18:54:32.656Z,92513.75
2022-11-25T18:56:59.079Z,92522.13
2022-11-25T18:59:28.023Z,92526.31
2022-11-25T19:01:54.777Z,92541.91
2022-11-25T19:04:21.179Z,92555.69
2022-11-25T19:06:47.542Z,92571.53
2022-11-25T19:09:13.918Z,92587.16
2022-11-25T19:11:42.551Z,92603.75
2022-11-25T19:14:12.173Z,92612.56
2022-11-25T19:16:38.610Z,92627.16
2022-11-25T19:19:05.106Z,92637.56
2022-11-25T19:21:31.625Z,92644.38
2022-11-25T19:23:58.026Z,92643.00
2022-11-25T19:26:26.946Z,92644.78
2022-11-25T19:28:55.922Z,92654.19
2022-11-25T19:31:22.508Z,92651.00
2022-11-25T19:33:49.671Z,92663.00
2022-11-25T19:36:21.674Z,92661.41
2022-11-25T19:38:48.069Z,92665.59
2022-11-25T19:41:14.430Z,92674.22
2022-11-25T19:43:40.984Z,92677.59
2022-11-25T19:46:36.887Z,92688.78
2022-11-25T19:49:14.973Z,92681.78
2022-11-25T19:51:41.386Z,92671.53
2022-11-25T19:54:12.625Z,92664.50
2022-11-25T19:56:40.072Z,92663.75
2022-11-25T19:59:06.712Z,92642.06
2022-11-25T20:01:33.989Z,92617.19
2022-11-25T20:04:00.708Z,92612.41
2022-11-25T20:06:27.145Z,92598.59
2022-11-25T20:08:53.504Z,92577.59
2022-11-25T20:11:19.874Z,92541.75
2022-11-25T20:13:46.912Z,92513.91
2022-11-25T20:16:19.150Z,92499.13
2022-11-25T20:18:45.701Z,92473.91
2022-11-25T20:21:23.136Z,92451.50
2022-11-25T20:23:50.057Z,92420.53
2022-11-25T20:26:34.355Z,92396.31
2022-11-25T20:29:00.764Z,92374.13
2022-11-25T20:31:30.658Z,92361.91
2022-11-25T20:33:57.286Z,92335.91
2022-11-25T20:36:28.254Z,92323.91
2022-11-25T20:38:55.893Z,92303.91
2022-11-25T20:41:27.450Z,92300.28
2022-11-25T20:43:54.372Z,92288.31
2022-11-25T20:46:26.980Z,92277.91
2022-11-25T20:48:54.029Z,92258.44
2022-11-25T20:51:21.377Z,92248.03
2022-11-25T20:53:58.103Z,92232.66
2022-11-25T20:56:25.857Z,92226.22
2022-11-25T20:58:52.257Z,92223.06
2022-11-25T21:01:21.703Z,92212.97
2022-11-25T21:03:49.090Z,92188.53
2022-11-25T21:06:23.814Z,92177.09
2022-11-25T21:08:51.327Z,92172.94
2022-11-25T21:11:18.325Z,92162.09
2022-11-25T21:13:45.007Z,92150.44
2022-11-25T21:16:11.498Z,92137.75
2022-11-25T21:18:38.415Z,92128.34
2022-11-25T21:21:04.938Z,92119.53
2022-11-25T21:23:35.597Z,92095.75
2022-11-25T21:26:13.725Z,92084.09
2022-11-25T21:28:41.643Z,92066.19
2022-11-25T21:31:13.115Z,92044.91
2022-11-25T21:33:39.556Z,92030.66
2022-11-25T21:36:06.269Z,92033.03
2022-11-25T21:38:32.653Z,92027.34
2022-11-25T21:40:59.093Z,92006.84
2022-11-25T21:43:30.419Z,92001.16
2022-11-25T21:46:00.825Z,91991.53
2022-11-25T21:48:27.609Z,91991.53
2022-11-25T21:50:53.989Z,91993.59
2022-11-25T21:53:20.356Z,91996.22
2022-11-25T21:55:46.848Z,91986.34
2022-11-25T21:58:33.449Z,91974.66
2022-11-25T22:01:00.917Z,91971.84
2022-11-25T22:03:29.166Z,91957.78
2022-11-25T22:05:55.655Z,91952.56
2022-11-25T22:08:23.209Z,91963.00
2022-11-25T22:10:53.526Z,91953.91
2022-11-25T22:13:38.182Z,91953.69
2022-11-25T22:16:04.887Z,91944.59
2022-11-25T22:18:32.803Z,91960.47
2022-11-25T22:20:59.208Z,91951.16
2022-11-25T22:23:26.034Z,91949.88
2022-11-25T22:25:52.614Z,91954.31
2022-11-25T22:28:24.491Z,91955.91
2022-11-25T22:30:52.049Z,91954.31
2022-11-25T22:33:18.984Z,91978.00
2022-11-25T22:35:45.968Z,91971.53
2022-11-25T22:38:16.827Z,91971.53
2022-11-25T22:40:44.653Z,91998.31
2022-11-25T22:43:27.570Z,92001.19
2022-11-25T22:45:54.121Z,91997.06
2022-11-25T22:48:24.002Z,91997.06
2022-11-25T22:50:50.393Z,92002.28
2022-11-25T22:53:18.002Z,92006.47
2022-11-25T22:55:44.662Z,92009.06
2022-11-25T22:58:14.119Z,92010.66
2022-11-25T23:00:42.639Z,92017.44
2022-11-25T23:03:18.632Z,92019.00
2022-11-25T23:05:46.500Z,92030.44
2022-11-25T23:08:26.918Z,92032.25
2022-11-25T23:10:53.408Z,92040.88
2022-11-25T23:13:20.445Z,92056.94
2022-11-25T23:15:57.536Z,92066.34
2022-11-25T23:18:34.009Z,92082.44
2022-11-25T23:21:03.902Z,92072.34
2022-11-25T23:23:30.378Z,92092.41
2022-11-25T23:25:57.111Z,92104.84
2022-11-25T23:28:23.685Z,92103.28
2022-11-25T23:30:57.530Z,92112.19
2022-11-25T23:33:48.112Z,92107.00
2022-11-25T23:36:17.722Z,92130.88
2022-11-25T23:38:46.400Z,92148.06
2022-11-25T23:41:19.706Z,92148.06
2022-11-25T23:43:46.055Z,92151.72
2022-11-25T23:46:14.059Z,92178.22
2022-11-25T23:48:40.449Z,92196.69
2022-11-25T23:51:06.952Z,92216.72
2022-11-25T23:53:33.501Z,92231.19
2022-11-25T23:55:59.917Z,92244.44
2022-11-25T23:58:26.397Z,92267.00
